Repubbli Del Brasile — IBZB — position and weather

sailwx.info

Track history (hours):
 
Tides and Currents Weather Stations Pressure Air Temp Water Temp Dewpoint Dewpoint Depression Visibility Wind Speed Wind Dir Waves Ship Positions

Repubbli Del Brasile

Last reported at 2015-Jan-24 17:18 UTC. Time now 2015-Jan-26 18:29 UTC.
Position N 09°33' W 016°18'.

Length 209 m; draft 7.9 m.

Type: Ship (hazmat cat A). MMSI: 247310000.

Date/timePositionNaut miles runAvg speedWind from/ knotsBaromVisibWave heightAir tempDewpointWater temp
2015-Jan-24 17:18N 09°33' W 016°18'1114.4
2015-Jan-24 16:31N 09°26' W 016°09'1814.5
2015-Jan-24 15:16N 09°14' W 015°56'6114.7
2015-Jan-24 11:05N 08°32' W 015°10'  
2015-Jan-19 01:22N 06°15' E 002°32'0 0.0
2015-Jan-19 00:31N 06°15' E 002°32'0 0.0
2015-Jan-18 23:33N 06°15' E 002°32'0 0.0
2015-Jan-18 22:30N 06°15' E 002°32'0 0.0
2015-Jan-18 21:05N 06°15' E 002°32'14 5.4
2015-Jan-18 18:25N 06°07' E 002°44'3116.1
2015-Jan-18 16:31N 06°09' E 003°15'1313.5
2015-Jan-18 15:33N 06°16' E 003°26'1010.0
2015-Jan-18 14:33N 06°26' E 003°24'4 3.8
2015-Jan-18 13:33N 06°26' E 003°20'1 0.5
2015-Jan-18 12:30N 06°26' E 003°20'0 0.0
2015-Jan-18 11:33N 06°26' E 003°20'0 0.0
2015-Jan-18 10:29N 06°26' E 003°20'0 0.0
2015-Jan-18 09:32N 06°26' E 003°20'0 0.0
2015-Jan-18 08:31N 06°26' E 003°20'0 0.0
2015-Jan-18 07:31N 06°26' E 003°20'0 0.0
2015-Jan-18 06:31N 06°26' E 003°20'0 0.0
2015-Jan-18 05:33N 06°26' E 003°20'0 0.0
2015-Jan-18 04:33N 06°26' E 003°20'0 0.0
2015-Jan-18 03:32N 06°26' E 003°20'0 0.0
2015-Jan-18 02:26N 06°26' E 003°20'0 0.0
2015-Jan-18 01:31N 06°26' E 003°20'0 0.0
2015-Jan-18 00:31N 06°26' E 003°20'0 0.0
2015-Jan-17 23:28N 06°26' E 003°20'0 0.0
2015-Jan-17 22:33N 06°26' E 003°20'0 0.0
2015-Jan-17 21:33N 06°26' E 003°20'0 0.0
2015-Jan-17 20:32N 06°26' E 003°20'0 0.0
2015-Jan-17 19:29N 06°26' E 003°20'0 0.0
2015-Jan-17 18:31N 06°26' E 003°20'0 0.0
2015-Jan-17 17:31N 06°26' E 003°20'0 0.0
2015-Jan-17 16:33N 06°26' E 003°20'0 0.0
2015-Jan-17 15:33N 06°26' E 003°20'0 0.0
2015-Jan-17 14:33N 06°26' E 003°20'0 0.0
2015-Jan-17 13:32N 06°26' E 003°20'0 0.0
2015-Jan-17 12:32N 06°26' E 003°20'0 0.0
2015-Jan-17 11:33N 06°26' E 003°20'4 3.8
2015-Jan-17 10:27N 06°25' E 003°24'5 5.7
2015-Jan-17 09:33N 06°20' E 003°25'2 2.4
2015-Jan-17 08:32N 06°18' E 003°24'1 0.5
2015-Jan-17 07:33N 06°18' E 003°24'1 1.2
2015-Jan-17 06:33N 06°17' E 003°23'1414.1
2015-Jan-17 05:33N 06°09' E 003°12'1615.4
2015-Jan-17 04:33N 06°04' E 002°57'1515.4
2015-Jan-17 03:33N 05°60' E 002°42'1515.3
2015-Jan-17 02:33N 05°55' E 002°27'1515.3
2015-Jan-17 01:33N 05°50' E 002°13'1515.2
2015-Jan-17 00:33N 05°46' E 001°58'3815.3
2015-Jan-16 22:05N 05°34' E 001°22'814.6
2015-Jan-16 21:33N 05°32' E 001°15'0 0.2
2015-Jan-16 20:17N 05°31' E 001°15'0 0.6
2015-Jan-16 19:33N 05°31' E 001°15'1 0.9
2015-Jan-16 18:27N 05°31' E 001°16'17 5.7
2015-Jan-16 15:33N 05°27' E 000°60'  
Track history (hours):
 
Tides and Currents Weather Stations Pressure Air Temp Water Temp Dewpoint Dewpoint Depression Visibility Wind Speed Wind Dir Waves Ship Positions

Repubbli Del Brasile

Last reported at 2015-Jan-24 17:18 UTC. Time now 2015-Jan-26 18:29 UTC.
Position N 09°33' W 016°18'.

Length 209 m; draft 7.9 m.

Type: Ship (hazmat cat A). MMSI: 247310000.

Date/timePositionNaut miles runAvg speedWind from/ knotsBaromVisibWave heightAir tempDewpointWater temp
2015-Jan-24 17:18N 09°33' W 016°18'1114.4
2015-Jan-24 16:31N 09°26' W 016°09'1814.5
2015-Jan-24 15:16N 09°14' W 015°56'6114.7
2015-Jan-24 11:05N 08°32' W 015°10'  
2015-Jan-19 01:22N 06°15' E 002°32'0 0.0
2015-Jan-19 00:31N 06°15' E 002°32'0 0.0
2015-Jan-18 23:33N 06°15' E 002°32'0 0.0
2015-Jan-18 22:30N 06°15' E 002°32'0 0.0
2015-Jan-18 21:05N 06°15' E 002°32'14 5.4
2015-Jan-18 18:25N 06°07' E 002°44'3116.1
2015-Jan-18 16:31N 06°09' E 003°15'1313.5
2015-Jan-18 15:33N 06°16' E 003°26'1010.0
2015-Jan-18 14:33N 06°26' E 003°24'4 3.8
2015-Jan-18 13:33N 06°26' E 003°20'1 0.5
2015-Jan-18 12:30N 06°26' E 003°20'0 0.0
2015-Jan-18 11:33N 06°26' E 003°20'0 0.0
2015-Jan-18 10:29N 06°26' E 003°20'0 0.0
2015-Jan-18 09:32N 06°26' E 003°20'0 0.0
2015-Jan-18 08:31N 06°26' E 003°20'0 0.0
2015-Jan-18 07:31N 06°26' E 003°20'0 0.0
2015-Jan-18 06:31N 06°26' E 003°20'0 0.0
2015-Jan-18 05:33N 06°26' E 003°20'0 0.0
2015-Jan-18 04:33N 06°26' E 003°20'0 0.0
2015-Jan-18 03:32N 06°26' E 003°20'0 0.0
2015-Jan-18 02:26N 06°26' E 003°20'0 0.0
2015-Jan-18 01:31N 06°26' E 003°20'0 0.0
2015-Jan-18 00:31N 06°26' E 003°20'0 0.0
2015-Jan-17 23:28N 06°26' E 003°20'0 0.0
2015-Jan-17 22:33N 06°26' E 003°20'0 0.0
2015-Jan-17 21:33N 06°26' E 003°20'0 0.0
2015-Jan-17 20:32N 06°26' E 003°20'0 0.0
2015-Jan-17 19:29N 06°26' E 003°20'0 0.0
2015-Jan-17 18:31N 06°26' E 003°20'0 0.0
2015-Jan-17 17:31N 06°26' E 003°20'0 0.0
2015-Jan-17 16:33N 06°26' E 003°20'0 0.0
2015-Jan-17 15:33N 06°26' E 003°20'0 0.0
2015-Jan-17 14:33N 06°26' E 003°20'0 0.0
2015-Jan-17 13:32N 06°26' E 003°20'0 0.0
2015-Jan-17 12:32N 06°26' E 003°20'0 0.0
2015-Jan-17 11:33N 06°26' E 003°20'4 3.8
2015-Jan-17 10:27N 06°25' E 003°24'5 5.7
2015-Jan-17 09:33N 06°20' E 003°25'2 2.4
2015-Jan-17 08:32N 06°18' E 003°24'1 0.5
2015-Jan-17 07:33N 06°18' E 003°24'1 1.2
2015-Jan-17 06:33N 06°17' E 003°23'1414.1
2015-Jan-17 05:33N 06°09' E 003°12'1615.4
2015-Jan-17 04:33N 06°04' E 002°57'1515.4
2015-Jan-17 03:33N 05°60' E 002°42'1515.3
2015-Jan-17 02:33N 05°55' E 002°27'1515.3
2015-Jan-17 01:33N 05°50' E 002°13'1515.2
2015-Jan-17 00:33N 05°46' E 001°58'3815.3
2015-Jan-16 22:05N 05°34' E 001°22'814.6
2015-Jan-16 21:33N 05°32' E 001°15'0 0.2
2015-Jan-16 20:17N 05°31' E 001°15'0 0.6
2015-Jan-16 19:33N 05°31' E 001°15'1 0.9
2015-Jan-16 18:27N 05°31' E 001°16'17 5.7
2015-Jan-16 15:33N 05°27' E 000°60'  

Dump ship's entire track history